Aviation Digital Data Service (ADDS)

Output produced by METARs form (0756 UTC 25 August 2016)
found at http://aviationweather.gov/adds/metars/
 
KLBT 250520Z 2506/2606 00000KT P6SM SKC 
     FM251000 00000KT 5SM BR SKC 
     FM251200 05003KT 6SM BR SKC 
     FM252300 14005KT P6SM SKC